createdAt,value
2018-09-15T00:02:05.049Z,57.23
2018-09-15T00:04:38.361Z,57.45
2018-09-15T00:07:11.694Z,57.69
2018-09-15T00:09:45.039Z,57.99
2018-09-15T00:12:18.342Z,57.76
2018-09-15T00:14:51.647Z,58.05
2018-09-15T00:17:25.216Z,58.09
2018-09-15T00:19:58.560Z,58.04
2018-09-15T00:22:31.850Z,57.86
2018-09-15T00:25:05.534Z,57.97
2018-09-15T00:27:38.830Z,57.71
2018-09-15T00:30:12.230Z,57.71
2018-09-15T00:32:45.540Z,57.50
2018-09-15T00:35:18.857Z,57.93
2018-09-15T00:37:52.166Z,57.80
2018-09-15T00:40:25.524Z,58.10
2018-09-15T00:42:58.814Z,58.10
2018-09-15T00:45:32.149Z,58.10
2018-09-15T00:48:05.457Z,58.07
2018-09-15T00:50:38.797Z,58.18
2018-09-15T00:53:12.098Z,58.20
2018-09-15T00:55:45.433Z,58.43
2018-09-15T00:58:18.733Z,58.12
2018-09-15T01:00:52.045Z,58.22
2018-09-15T01:03:25.332Z,58.23
2018-09-15T01:05:58.725Z,58.08
2018-09-15T01:08:32.018Z,58.04
2018-09-15T01:11:05.353Z,58.12
2018-09-15T01:13:38.649Z,58.16
2018-09-15T01:16:11.962Z,57.66
2018-09-15T01:18:45.257Z,57.89
2018-09-15T01:21:18.565Z,58.14
2018-09-15T01:23:51.890Z,58.05
2018-09-15T01:26:25.205Z,58.10
2018-09-15T01:28:58.556Z,58.01
2018-09-15T01:31:31.875Z,58.11
2018-09-15T01:34:05.178Z,58.32
2018-09-15T01:36:38.502Z,58.57
2018-09-15T01:39:11.798Z,58.46
2018-09-15T01:41:45.185Z,58.63
2018-09-15T01:44:18.520Z,58.46
2018-09-15T01:46:51.827Z,58.47
2018-09-15T01:49:25.118Z,58.84
2018-09-15T01:51:58.457Z,58.91
2018-09-15T01:54:31.820Z,58.62
2018-09-15T01:57:05.145Z,58.86
2018-09-15T01:59:38.522Z,59.36
2018-09-15T02:02:11.842Z,59.33
2018-09-15T02:04:45.137Z,59.54
2018-09-15T02:07:18.526Z,59.79
2018-09-15T02:09:51.903Z,59.96
2018-09-15T02:12:25.430Z,59.98
2018-09-15T02:14:58.717Z,59.84
2018-09-15T02:17:32.022Z,59.98
2018-09-15T02:20:05.303Z,59.92
2018-09-15T02:22:38.670Z,59.99
2018-09-15T02:25:11.946Z,59.93
2018-09-15T02:27:45.281Z,59.91
2018-09-15T02:30:18.589Z,60.14
2018-09-15T02:32:51.991Z,60.34
2018-09-15T02:35:25.313Z,60.53
2018-09-15T02:37:58.645Z,60.73
2018-09-15T02:40:32.031Z,60.40
2018-09-15T02:43:05.353Z,60.82
2018-09-15T02:45:38.643Z,60.50
2018-09-15T02:48:12.109Z,60.37
2018-09-15T02:50:45.399Z,60.97
2018-09-15T02:53:19.814Z,60.75
2018-09-15T02:55:53.156Z,60.77
2018-09-15T02:58:26.482Z,60.82
2018-09-15T03:00:59.773Z,60.96
2018-09-15T03:03:33.085Z,61.15
2018-09-15T03:06:06.437Z,61.25
2018-09-15T03:08:39.726Z,61.28
2018-09-15T03:11:13.044Z,61.29
2018-09-15T03:13:46.380Z,61.54
2018-09-15T03:16:19.684Z,61.33
2018-09-15T03:18:53.680Z,61.21
2018-09-15T03:21:26.992Z,61.40
2018-09-15T03:24:00.321Z,61.61
2018-09-15T03:26:33.616Z,61.77
2018-09-15T03:29:06.949Z,62.04
2018-09-15T03:31:40.270Z,61.63
2018-09-15T03:34:13.589Z,61.73
2018-09-15T03:36:46.893Z,61.86
2018-09-15T03:39:20.213Z,61.82
2018-09-15T03:41:53.588Z,62.02
2018-09-15T03:44:26.850Z,62.06
2018-09-15T03:47:00.160Z,61.84
2018-09-15T03:49:33.490Z,62.01
2018-09-15T03:52:06.789Z,62.08
2018-09-15T03:54:40.104Z,62.09
2018-09-15T03:57:13.453Z,61.91
2018-09-15T03:59:47.615Z,62.17
2018-09-15T04:02:20.930Z,62.14
2018-09-15T04:04:54.603Z,62.06
2018-09-15T04:07:27.906Z,62.11
2018-09-15T04:10:01.242Z,62.15
2018-09-15T04:12:34.550Z,62.13
2018-09-15T04:15:07.874Z,62.23
2018-09-15T04:17:41.182Z,61.86
2018-09-15T04:20:14.509Z,61.72
2018-09-15T04:22:47.815Z,61.91
2018-09-15T04:25:21.201Z,61.62
2018-09-15T04:27:54.478Z,62.10
2018-09-15T04:30:27.830Z,61.81
2018-09-15T04:33:01.192Z,62.01
2018-09-15T04:35:34.518Z,61.67
2018-09-15T04:38:07.883Z,61.83
2018-09-15T04:40:41.231Z,61.74
2018-09-15T04:43:14.573Z,61.71
2018-09-15T04:45:47.894Z,61.69
2018-09-15T04:48:21.245Z,61.91
2018-09-15T04:50:54.613Z,61.71
2018-09-15T04:53:27.967Z,61.45
2018-09-15T04:56:01.371Z,61.73
2018-09-15T04:58:34.937Z,61.69
2018-09-15T05:01:08.268Z,61.69
2018-09-15T05:03:42.077Z,61.40
2018-09-15T05:06:16.099Z,61.59
2018-09-15T05:08:50.853Z,61.83
2018-09-15T05:11:24.313Z,61.18
2018-09-15T05:13:57.702Z,60.92
2018-09-15T05:16:31.709Z,61.02
2018-09-15T05:19:05.046Z,61.22
2018-09-15T05:21:38.420Z,61.10
2018-09-15T05:24:11.744Z,61.30
2018-09-15T05:26:45.081Z,61.11
2018-09-15T05:29:18.422Z,61.49
2018-09-15T05:31:51.722Z,61.40
2018-09-15T05:34:25.077Z,61.10
2018-09-15T05:36:58.534Z,61.20
2018-09-15T05:39:31.934Z,61.36
2018-09-15T05:42:05.253Z,61.48
2018-09-15T05:44:38.570Z,61.53
2018-09-15T05:47:11.874Z,61.41
2018-09-15T05:49:45.232Z,61.43
2018-09-15T05:52:18.614Z,61.73
2018-09-15T05:54:52.070Z,61.61
2018-09-15T05:57:25.525Z,61.66
2018-09-15T05:59:58.922Z,61.28
2018-09-15T06:02:32.257Z,61.78
2018-09-15T06:05:05.590Z,61.71
2018-09-15T06:07:38.972Z,61.55
2018-09-15T06:10:12.325Z,61.21
2018-09-15T06:12:45.704Z,61.00
2018-09-15T06:15:18.989Z,60.90
2018-09-15T06:17:52.313Z,60.51
2018-09-15T06:20:25.592Z,60.54
2018-09-15T06:22:58.911Z,60.36
2018-09-15T06:25:32.211Z,60.17
2018-09-15T06:28:05.574Z,60.34
2018-09-15T06:30:38.932Z,60.27
2018-09-15T06:33:12.227Z,60.27
2018-09-15T06:35:45.587Z,59.65
2018-09-15T06:38:18.951Z,59.49
2018-09-15T06:40:53.558Z,59.02
2018-09-15T06:43:27.666Z,58.68
2018-09-15T06:46:01.041Z,58.03
2018-09-15T06:48:34.349Z,58.25
2018-09-15T06:51:08.087Z,58.09
2018-09-15T06:53:42.757Z,57.94
2018-09-15T06:56:16.240Z,58.03
2018-09-15T06:58:49.746Z,58.29
2018-09-15T07:01:23.193Z,58.28
2018-09-15T07:03:57.014Z,57.86
2018-09-15T07:06:30.389Z,57.77
2018-09-15T07:09:04.237Z,58.23
2018-09-15T07:11:38.062Z,57.78
2018-09-15T07:14:11.719Z,58.11
2018-09-15T07:16:45.145Z,57.99
2018-09-15T07:19:18.553Z,58.53
2018-09-15T07:21:52.922Z,58.79
2018-09-15T07:24:26.364Z,58.64
2018-09-15T07:26:59.708Z,59.22
2018-09-15T07:29:33.142Z,59.78
2018-09-15T07:32:06.565Z,59.64
2018-09-15T07:34:39.953Z,58.87
2018-09-15T07:37:13.337Z,58.91
2018-09-15T07:39:46.648Z,59.01
2018-09-15T07:42:19.997Z,58.61
2018-09-15T07:44:53.488Z,58.52
2018-09-15T07:47:26.831Z,57.51
2018-09-15T07:50:00.217Z,57.88
2018-09-15T07:52:33.525Z,57.17
2018-09-15T07:55:06.874Z,57.49
2018-09-15T07:57:40.316Z,57.88
2018-09-15T08:00:13.652Z,56.82
2018-09-15T08:02:46.982Z,56.59
2018-09-15T08:05:20.306Z,56.29
2018-09-15T08:07:53.605Z,58.03
2018-09-15T08:10:26.981Z,57.68
2018-09-15T08:13:00.334Z,57.28
2018-09-15T08:15:33.629Z,56.28
2018-09-15T08:18:06.961Z,56.32
2018-09-15T08:20:40.341Z,55.53
2018-09-15T08:23:13.626Z,54.57
2018-09-15T08:25:46.987Z,54.87
2018-09-15T08:28:20.394Z,54.00
2018-09-15T08:30:54.113Z,54.18
2018-09-15T08:33:28.557Z,54.55
2018-09-15T08:36:02.174Z,54.66
2018-09-15T08:38:35.638Z,54.37
2018-09-15T08:41:08.969Z,54.48
2018-09-15T08:43:42.734Z,55.36
2018-09-15T08:46:16.513Z,55.68
2018-09-15T08:48:49.978Z,54.72
2018-09-15T08:51:23.353Z,54.48
2018-09-15T08:53:56.713Z,53.61
2018-09-15T08:56:30.021Z,53.35
2018-09-15T08:59:03.355Z,54.68
2018-09-15T09:01:36.654Z,54.12
2018-09-15T09:04:10.049Z,52.77
2018-09-15T09:06:43.345Z,52.73
2018-09-15T09:09:16.658Z,51.90
2018-09-15T09:11:49.994Z,51.85
2018-09-15T09:14:23.289Z,52.12
2018-09-15T09:16:56.712Z,52.42
2018-09-15T09:19:30.057Z,51.75
2018-09-15T09:22:03.344Z,51.71
2018-09-15T09:24:36.645Z,52.34
2018-09-15T09:27:09.934Z,51.95
2018-09-15T09:29:43.242Z,52.23
2018-09-15T09:32:16.593Z,52.39
2018-09-15T09:34:49.979Z,52.67
2018-09-15T09:37:23.353Z,53.11
2018-09-15T09:39:56.769Z,52.90
2018-09-15T09:42:30.102Z,52.98
2018-09-15T09:45:03.518Z,52.83
2018-09-15T09:47:36.824Z,52.07
2018-09-15T09:50:10.148Z,52.38
2018-09-15T09:52:43.550Z,52.56
2018-09-15T09:55:16.864Z,52.51
2018-09-15T09:57:50.150Z,52.45
2018-09-15T10:00:28.874Z,52.21
2018-09-15T10:03:02.237Z,51.65
2018-09-15T10:05:36.614Z,51.53
2018-09-15T10:08:10.019Z,51.85
2018-09-15T10:10:43.379Z,52.01
2018-09-15T10:13:16.949Z,50.78
2018-09-15T10:15:50.414Z,49.55
2018-09-15T10:18:23.673Z,49.82
2018-09-15T10:20:56.985Z,49.40
2018-09-15T10:23:30.280Z,49.61
2018-09-15T10:26:03.592Z,49.11
2018-09-15T10:28:36.908Z,49.89
2018-09-15T10:31:10.209Z,49.02
2018-09-15T10:33:43.604Z,50.72
2018-09-15T10:36:16.918Z,50.14
2018-09-15T10:38:50.209Z,50.52
2018-09-15T10:41:23.509Z,49.34
2018-09-15T10:43:56.917Z,49.18
2018-09-15T10:46:30.289Z,48.86
2018-09-15T10:49:03.694Z,48.50
2018-09-15T10:51:37.005Z,47.65
2018-09-15T10:54:10.385Z,48.42
2018-09-15T10:56:43.710Z,48.55
2018-09-15T10:59:17.064Z,48.20
2018-09-15T11:01:50.381Z,47.40
2018-09-15T11:04:23.897Z,49.25
2018-09-15T11:06:57.267Z,49.10
2018-09-15T11:09:30.553Z,48.31
2018-09-15T11:12:03.915Z,48.87
2018-09-15T11:14:37.254Z,49.84
2018-09-15T11:17:10.560Z,50.11
2018-09-15T11:19:43.909Z,49.98
2018-09-15T11:22:17.260Z,50.01
2018-09-15T11:24:50.713Z,50.31
2018-09-15T11:27:24.123Z,51.11
2018-09-15T11:29:57.555Z,50.58
2018-09-15T11:32:30.877Z,49.89
2018-09-15T11:35:04.331Z,50.21
2018-09-15T11:37:38.453Z,49.96
2018-09-15T11:40:12.093Z,49.87
2018-09-15T11:42:46.756Z,50.22
2018-09-15T11:45:20.129Z,50.57
2018-09-15T11:47:53.464Z,50.23
2018-09-15T11:50:26.733Z,48.61
2018-09-15T11:53:00.188Z,49.43
2018-09-15T11:55:33.560Z,50.23
2018-09-15T11:58:06.878Z,50.16
2018-09-15T12:00:43.646Z,51.06
2018-09-15T12:03:17.010Z,49.65
2018-09-15T12:05:50.394Z,48.54
2018-09-15T12:08:23.709Z,48.60
2018-09-15T12:10:57.029Z,48.07
2018-09-15T12:13:30.484Z,48.36
2018-09-15T12:16:03.801Z,47.78
2018-09-15T12:18:37.117Z,47.57
2018-09-15T12:21:10.461Z,48.73
2018-09-15T12:23:43.889Z,49.07
2018-09-15T12:26:17.288Z,47.49
2018-09-15T12:28:50.693Z,47.36
2018-09-15T12:31:24.005Z,46.79
2018-09-15T12:33:57.401Z,47.67
2018-09-15T12:36:30.754Z,46.88
2018-09-15T12:39:04.890Z,47.19
2018-09-15T12:41:38.298Z,45.44
2018-09-15T12:44:11.627Z,46.03
2018-09-15T12:46:45.303Z,45.80
2018-09-15T12:49:18.899Z,45.90
2018-09-15T12:51:52.642Z,46.30
2018-09-15T12:54:26.165Z,45.89
2018-09-15T12:56:59.927Z,45.50
2018-09-15T12:59:33.607Z,46.24
2018-09-15T13:02:07.354Z,45.67
2018-09-15T13:04:41.265Z,46.01
2018-09-15T13:07:15.538Z,46.19
2018-09-15T13:09:49.079Z,45.31
2018-09-15T13:12:22.918Z,44.59
2018-09-15T13:14:56.747Z,45.65
2018-09-15T13:17:30.858Z,46.19
2018-09-15T13:20:04.619Z,45.27
2018-09-15T13:22:37.984Z,44.80
2018-09-15T13:25:11.598Z,44.41
2018-09-15T13:27:45.058Z,44.48
2018-09-15T13:30:18.715Z,45.08
2018-09-15T13:32:52.518Z,44.75
2018-09-15T13:35:26.621Z,44.78
2018-09-15T13:38:00.599Z,44.86
2018-09-15T13:40:34.943Z,44.75
2018-09-15T13:43:08.598Z,43.65
2018-09-15T13:45:42.527Z,43.04
2018-09-15T13:48:16.581Z,43.18
2018-09-15T13:50:50.274Z,42.94
2018-09-15T13:53:24.376Z,43.83
2018-09-15T13:55:57.991Z,42.36
2018-09-15T13:58:31.555Z,42.84
2018-09-15T14:01:05.126Z,43.37
2018-09-15T14:03:38.747Z,41.72
2018-09-15T14:06:12.354Z,42.44
2018-09-15T14:08:45.937Z,41.74
2018-09-15T14:11:19.596Z,43.24
2018-09-15T14:13:53.117Z,42.62
2018-09-15T14:16:26.656Z,42.45
2018-09-15T14:19:00.281Z,41.09
2018-09-15T14:21:33.841Z,41.85
2018-09-15T14:24:07.399Z,42.42
2018-09-15T14:26:40.927Z,43.27
2018-09-15T14:29:14.594Z,41.41
2018-09-15T14:31:48.110Z,41.81
2018-09-15T14:34:21.622Z,42.49
2018-09-15T14:36:55.216Z,42.50
2018-09-15T14:39:28.740Z,42.60
2018-09-15T14:42:02.229Z,42.87
2018-09-15T14:44:35.737Z,42.97
2018-09-15T14:47:09.177Z,42.61
2018-09-15T14:49:42.501Z,41.87
2018-09-15T14:52:15.805Z,42.09
2018-09-15T14:54:49.101Z,43.17
2018-09-15T14:57:22.505Z,43.49
2018-09-15T14:59:55.949Z,43.65
2018-09-15T15:02:30.098Z,44.65
2018-09-15T15:05:03.426Z,44.86
2018-09-15T15:07:36.845Z,45.65
2018-09-15T15:10:10.218Z,46.34
2018-09-15T15:12:43.567Z,47.27
2018-09-15T15:15:16.991Z,48.41
2018-09-15T15:17:50.273Z,49.85
2018-09-15T15:20:23.600Z,50.53
2018-09-15T15:22:56.979Z,50.40
2018-09-15T15:25:30.331Z,51.19
2018-09-15T15:28:03.624Z,51.34
2018-09-15T15:30:37.257Z,52.50
2018-09-15T15:33:10.555Z,52.66
2018-09-15T15:35:43.893Z,52.92
2018-09-15T15:38:17.205Z,53.10
2018-09-15T15:40:50.598Z,52.91
2018-09-15T15:43:23.911Z,52.67
2018-09-15T15:45:57.234Z,52.84
2018-09-15T15:48:30.521Z,52.45
2018-09-15T15:51:03.855Z,52.59
2018-09-15T15:53:37.229Z,52.97
2018-09-15T15:56:10.634Z,53.26
2018-09-15T15:58:44.072Z,53.77
2018-09-15T16:01:17.266Z,54.29
2018-09-15T16:03:51.141Z,54.00
2018-09-15T16:06:24.469Z,53.65
2018-09-15T16:08:57.782Z,53.73
2018-09-15T16:11:31.128Z,53.62
2018-09-15T16:14:04.422Z,53.42
2018-09-15T16:16:37.952Z,53.61
2018-09-15T16:19:11.474Z,54.05
2018-09-15T16:21:44.809Z,53.79
2018-09-15T16:24:18.165Z,54.27
2018-09-15T16:26:51.477Z,54.31
2018-09-15T16:29:24.811Z,54.47
2018-09-15T16:31:58.121Z,54.25
2018-09-15T16:34:31.413Z,55.07
2018-09-15T16:37:04.777Z,54.49
2018-09-15T16:39:38.105Z,54.85
2018-09-15T16:42:11.393Z,54.52
2018-09-15T16:44:44.804Z,54.67
2018-09-15T16:47:18.128Z,55.10
2018-09-15T16:49:51.434Z,55.17
2018-09-15T16:52:25.141Z,54.75
2018-09-15T16:54:59.556Z,55.13
2018-09-15T16:57:32.946Z,55.34
2018-09-15T17:00:06.297Z,55.48
2018-09-15T17:02:39.596Z,55.61
2018-09-15T17:05:12.917Z,55.76
2018-09-15T17:07:46.200Z,55.71
2018-09-15T17:10:19.530Z,56.73
2018-09-15T17:12:52.944Z,56.46
2018-09-15T17:15:26.325Z,56.50
2018-09-15T17:17:59.727Z,56.17
2018-09-15T17:20:33.170Z,56.50
2018-09-15T17:23:06.506Z,56.33
2018-09-15T17:25:39.898Z,56.67
2018-09-15T17:28:13.237Z,56.67
2018-09-15T17:30:46.628Z,56.14
2018-09-15T17:33:20.087Z,55.87
2018-09-15T17:35:53.414Z,55.77
2018-09-15T17:38:26.709Z,55.62
2018-09-15T17:41:00.113Z,56.05
2018-09-15T17:43:33.417Z,55.80
2018-09-15T17:46:06.933Z,55.96
2018-09-15T17:48:40.221Z,56.08
2018-09-15T17:51:13.561Z,56.46
2018-09-15T17:53:46.995Z,56.52
2018-09-15T17:56:20.389Z,56.51
2018-09-15T17:58:53.701Z,56.81
2018-09-15T18:01:27.018Z,56.99
2018-09-15T18:04:00.321Z,56.89
2018-09-15T18:06:33.638Z,56.77
2018-09-15T18:09:07.701Z,57.13
2018-09-15T18:11:41.049Z,57.17
2018-09-15T18:14:14.459Z,56.87
2018-09-15T18:16:47.796Z,57.78
2018-09-15T18:19:21.178Z,57.36
2018-09-15T18:21:54.571Z,57.79
2018-09-15T18:24:27.897Z,57.87
2018-09-15T18:27:01.258Z,58.30
2018-09-15T18:29:34.546Z,58.44
2018-09-15T18:32:07.884Z,58.12
2018-09-15T18:34:41.230Z,58.59
2018-09-15T18:37:14.618Z,58.46
2018-09-15T18:39:47.918Z,58.23
2018-09-15T18:42:21.332Z,58.12
2018-09-15T18:44:54.613Z,58.14
2018-09-15T18:47:28.001Z,57.41
2018-09-15T18:50:01.305Z,57.37
2018-09-15T18:52:34.633Z,56.56
2018-09-15T18:55:07.957Z,56.95
2018-09-15T18:57:41.300Z,57.21
2018-09-15T19:00:14.619Z,56.70
2018-09-15T19:02:47.994Z,56.87
2018-09-15T19:05:21.325Z,57.34
2018-09-15T19:07:54.633Z,57.29
2018-09-15T19:10:27.945Z,56.61
2018-09-15T19:13:01.368Z,56.97
2018-09-15T19:15:34.644Z,56.91
2018-09-15T19:18:07.941Z,57.33
2018-09-15T19:20:41.321Z,57.01
2018-09-15T19:23:14.733Z,57.46
2018-09-15T19:25:48.174Z,57.80
2018-09-15T19:28:21.481Z,57.37
2018-09-15T19:30:54.796Z,57.37
2018-09-15T19:33:28.737Z,57.16
2018-09-15T19:36:02.049Z,57.65
2018-09-15T19:38:35.859Z,57.94
2018-09-15T19:41:09.169Z,57.95
2018-09-15T19:43:42.541Z,58.03
2018-09-15T19:46:16.804Z,57.95
2018-09-15T19:48:50.829Z,58.09
2018-09-15T19:51:24.588Z,58.18
2018-09-15T19:53:58.803Z,58.35
2018-09-15T19:56:32.797Z,58.59
2018-09-15T19:59:06.602Z,58.62
2018-09-15T20:01:40.285Z,58.76
2018-09-15T20:04:13.825Z,58.66
2018-09-15T20:06:49.045Z,58.65
2018-09-15T20:09:22.384Z,59.05
2018-09-15T20:11:56.095Z,58.72
2018-09-15T20:14:29.809Z,59.14
2018-09-15T20:17:02.011Z,59.05
2018-09-15T20:19:34.250Z,59.24
2018-09-15T20:22:07.655Z,59.46
2018-09-15T20:24:41.231Z,59.07
2018-09-15T20:27:14.629Z,59.16
2018-09-15T20:29:48.057Z,59.18
2018-09-15T20:32:22.748Z,59.24
2018-09-15T20:34:56.280Z,58.97
2018-09-15T20:37:29.710Z,59.27
2018-09-15T20:40:03.102Z,59.15
2018-09-15T20:42:36.518Z,59.40
2018-09-15T20:45:09.945Z,59.43
2018-09-15T20:47:43.258Z,59.62
2018-09-15T20:50:17.621Z,59.66
2018-09-15T20:52:52.012Z,59.56
2018-09-15T20:55:25.663Z,59.66
2018-09-15T20:57:59.699Z,59.84
2018-09-15T21:00:33.840Z,59.88
2018-09-15T21:03:07.642Z,59.87
2018-09-15T21:05:41.033Z,60.12
2018-09-15T21:08:15.213Z,59.95
2018-09-15T21:10:48.861Z,60.20
2018-09-15T21:13:22.633Z,60.03
2018-09-15T21:15:56.700Z,60.36
2018-09-15T21:18:29.997Z,59.88
2018-09-15T21:21:03.694Z,60.31
2018-09-15T21:23:38.174Z,60.25
2018-09-15T21:26:11.681Z,60.14
2018-09-15T21:28:46.469Z,60.22
2018-09-15T21:31:19.808Z,60.32
2018-09-15T21:33:53.591Z,60.45
2018-09-15T21:36:26.905Z,60.68
2018-09-15T21:39:00.601Z,60.60
2018-09-15T21:41:34.366Z,60.44
2018-09-15T21:44:08.309Z,60.73
2018-09-15T21:46:42.025Z,60.84
2018-09-15T21:49:15.730Z,61.21
2018-09-15T21:51:49.194Z,60.81
2018-09-15T21:54:22.494Z,60.97
2018-09-15T21:56:55.809Z,61.38
2018-09-15T21:59:29.106Z,61.22
2018-09-15T22:02:02.405Z,61.73
2018-09-15T22:04:35.702Z,61.57
2018-09-15T22:07:09.096Z,61.32
2018-09-15T22:09:42.400Z,61.61
2018-09-15T22:12:15.738Z,61.47
2018-09-15T22:14:49.102Z,61.26
2018-09-15T22:17:22.398Z,61.16
2018-09-15T22:19:55.739Z,61.07
2018-09-15T22:22:29.821Z,61.51
2018-09-15T22:25:03.927Z,61.27
2018-09-15T22:27:37.984Z,61.12
2018-09-15T22:30:11.318Z,61.41
2018-09-15T22:32:45.100Z,61.58
2018-09-15T22:35:18.681Z,61.64
2018-09-15T22:37:52.148Z,61.42
2018-09-15T22:40:25.529Z,61.19
2018-09-15T22:42:58.828Z,61.11
2018-09-15T22:45:32.149Z,61.42
2018-09-15T22:48:05.454Z,61.52
2018-09-15T22:50:38.769Z,61.44
2018-09-15T22:53:12.107Z,61.55
2018-09-15T22:55:45.397Z,61.16
2018-09-15T22:58:18.765Z,61.40
2018-09-15T23:00:52.082Z,61.26
2018-09-15T23:03:25.407Z,61.74
2018-09-15T23:05:58.812Z,61.44
2018-09-15T23:08:32.166Z,61.73
2018-09-15T23:11:06.084Z,61.72
2018-09-15T23:13:39.352Z,61.50
2018-09-15T23:16:12.761Z,61.67
2018-09-15T23:18:46.041Z,61.70
2018-09-15T23:21:19.373Z,61.96
2018-09-15T23:23:52.705Z,62.00
2018-09-15T23:26:26.053Z,61.91
2018-09-15T23:28:59.362Z,61.71
2018-09-15T23:31:32.741Z,61.64
2018-09-15T23:34:06.122Z,61.87
2018-09-15T23:36:39.426Z,61.96
2018-09-15T23:39:12.704Z,62.25
2018-09-15T23:41:46.025Z,62.16
2018-09-15T23:44:19.303Z,61.87
2018-09-15T23:46:52.598Z,61.80
2018-09-15T23:49:25.904Z,61.77
2018-09-15T23:51:59.297Z,62.01
2018-09-15T23:54:33.075Z,62.03
2018-09-15T23:57:06.392Z,62.04
2018-09-15T23:59:40.096Z,61.87
